Canutama, Brazil
Current Conditions -  °F | °C
As of 1:00 PM on Thursday 18 Dec 2014 (Local Time) from SBPV Reporting Station
Scattered Clouds Scattered Clouds  
Wind Chill: 90°   Ceiling: Unl
Heat Index: 95°   Visibility: 6mi
Dew Point: 70°   Wind: 0mph
Humidity: 52%   Direction: NA
Pressure: 29.83"   Gusts: NA
Location:  6.53°S, 64.34°W
Report Text: SBPV 181700Z 00000KT 9999 SCT023 SCT100 32/21 Q1010
Loading
Personal Weather Stations






























Interactive Weather Map New forecast layout! Learn more

10-Day Weather Forecast

Advertisements
Track Severe Weather on mobile